Auance, South Dakota
Current Conditions -  °F | °C
As of 5:55 PM on Monday 26 Jan 2015 (Local Time) from KPHP Reporting Station
Clear Clear  
Wind Chill: 45°   Ceiling: Unl
Heat Index: 45°   Visibility: 10mi
Dew Point: 30°   Wind: 0mph
Humidity: 56%   Direction: NA
Pressure: 29.98"   Gusts: NA
Location:  44.8511°N, 102.128°W
Report Text: KPHP 270055Z AUTO 00000KT 10SM CLR 07/M01 A2998 RMK AO2 SLP159 T00721011
Loading
Personal Weather Stations






























Interactive Weather Map New forecast layout! Learn more

10-Day Weather Forecast

Advertisements
Track Severe Weather on mobile